createdAt,value
2018-02-01T00:01:17.091Z,94298.03
2018-02-01T00:03:47.306Z,94296.16
2018-02-01T00:06:17.118Z,94290.33
2018-02-01T00:08:49.531Z,94282.54
2018-02-01T00:11:24.075Z,94280.73
2018-02-01T00:16:33.177Z,94270.70
2018-02-01T00:19:05.087Z,94263.92
2018-02-01T00:21:37.581Z,94262.14
2018-02-01T00:24:10.898Z,94259.88
2018-02-01T00:26:44.762Z,94263.71
2018-02-01T00:31:56.129Z,94249.41
2018-02-01T00:34:31.708Z,94252.59
2018-02-01T00:37:07.072Z,94243.05
2018-02-01T00:39:41.984Z,94244.75
2018-02-01T00:44:53.553Z,94238.31
2018-02-01T00:47:27.712Z,94228.17
2018-02-01T00:52:38.769Z,94234.31
2018-02-01T00:55:07.976Z,94237.92
2018-02-01T00:57:36.997Z,94237.66
2018-02-01T01:00:06.040Z,94236.73
2018-02-01T01:02:35.073Z,94227.02
2018-02-01T01:07:39.354Z,94225.39
2018-02-01T01:10:08.396Z,94229.59
2018-02-01T01:12:37.427Z,94224.12
2018-02-01T01:15:06.452Z,94202.94
2018-02-01T01:17:35.486Z,94194.92
2018-02-01T01:20:04.526Z,94197.19
2018-02-01T01:22:33.581Z,94189.61
2018-02-01T01:25:02.671Z,94209.23
2018-02-01T01:27:31.715Z,94194.20
2018-02-01T01:30:00.753Z,94187.66
2018-02-01T01:32:29.787Z,94185.91
2018-02-01T01:34:58.816Z,94191.17
2018-02-01T01:37:27.845Z,94194.16
2018-02-01T01:39:57.015Z,94185.63
2018-02-01T01:42:26.034Z,94181.53
2018-02-01T01:44:55.042Z,94179.05
2018-02-01T01:47:24.069Z,94172.75
2018-02-01T01:49:53.103Z,94172.92
2018-02-01T01:52:23.953Z,94175.41
2018-02-01T01:54:52.984Z,94169.08
2018-02-01T01:59:57.211Z,94171.58
2018-02-01T02:02:26.236Z,94169.17
2018-02-01T02:04:55.261Z,94167.25
2018-02-01T02:07:24.382Z,94177.35
2018-02-01T02:09:53.397Z,94166.55
2018-02-01T02:12:22.429Z,94164.23
2018-02-01T02:14:51.452Z,94169.42
2018-02-01T02:19:55.729Z,94173.88
2018-02-01T02:22:24.768Z,94163.70
2018-02-01T02:24:53.790Z,94160.31
2018-02-01T02:29:58.100Z,94167.42
2018-02-01T02:32:27.133Z,94158.70
2018-02-01T02:34:56.157Z,94160.27
2018-02-01T02:37:25.201Z,94155.52
2018-02-01T02:39:54.246Z,94161.69
2018-02-01T02:42:23.286Z,94165.52
2018-02-01T02:44:52.313Z,94176.97
2018-02-01T02:49:56.592Z,94166.34
2018-02-01T02:52:25.629Z,94169.94
2018-02-01T02:54:54.677Z,94160.91
2018-02-01T02:57:23.713Z,94172.37
2018-02-01T02:59:52.741Z,94160.84
2018-02-01T03:02:21.779Z,94171.56
2018-02-01T03:04:50.833Z,94173.80
2018-02-01T03:07:19.876Z,94167.98
2018-02-01T03:09:48.905Z,94161.07
2018-02-01T03:12:17.942Z,94170.41
2018-02-01T03:17:22.594Z,94153.39
2018-02-01T03:19:51.633Z,94150.25
2018-02-01T03:22:20.682Z,94150.30
2018-02-01T03:24:49.709Z,94155.47
2018-02-01T03:27:18.733Z,94150.55
2018-02-01T03:29:47.759Z,94161.88
2018-02-01T03:32:17.053Z,94152.63
2018-02-01T03:37:21.256Z,94161.08
2018-02-01T03:39:50.307Z,94151.33
2018-02-01T03:42:19.337Z,94160.09
2018-02-01T03:44:48.370Z,94160.00
2018-02-01T03:47:17.401Z,94186.33
2018-02-01T03:49:46.438Z,94160.96
2018-02-01T03:52:15.473Z,94163.55
2018-02-01T03:54:44.533Z,94157.61
2018-02-01T03:57:13.556Z,94164.22
2018-02-01T03:59:42.588Z,94145.55
2018-02-01T04:02:11.612Z,94150.59
2018-02-01T04:04:40.648Z,94134.39
2018-02-01T04:07:09.682Z,94144.47
2018-02-01T04:09:38.901Z,94145.27
2018-02-01T04:12:07.928Z,94138.20
2018-02-01T04:14:36.962Z,94138.97
2018-02-01T04:17:05.984Z,94130.13
2018-02-01T04:19:35.023Z,94126.66
2018-02-01T04:22:04.057Z,94124.72
2018-02-01T04:24:33.110Z,94126.01
2018-02-01T04:27:02.143Z,94131.65
2018-02-01T04:29:31.169Z,94124.70
2018-02-01T04:32:01.135Z,94127.20
2018-02-01T04:34:30.183Z,94129.45
2018-02-01T04:36:59.223Z,94136.90
2018-02-01T04:39:28.253Z,94130.20
2018-02-01T04:41:57.345Z,94133.70
2018-02-01T04:44:26.381Z,94138.27
2018-02-01T04:46:55.437Z,94127.95
2018-02-01T04:49:24.481Z,94129.73
2018-02-01T04:51:53.501Z,94113.75
2018-02-01T04:54:22.592Z,94136.46
2018-02-01T04:56:51.640Z,94126.87
2018-02-01T04:59:20.674Z,94128.61
2018-02-01T05:01:49.705Z,94120.27
2018-02-01T05:04:18.811Z,94121.34
2018-02-01T05:06:47.807Z,94113.48
2018-02-01T05:09:16.837Z,94126.11
2018-02-01T05:11:45.864Z,94135.52
2018-02-01T05:14:14.903Z,94129.05
2018-02-01T05:16:43.957Z,94128.55
2018-02-01T05:19:12.994Z,94120.81
2018-02-01T05:21:42.037Z,94120.05
2018-02-01T05:24:11.100Z,94118.14
2018-02-01T05:26:40.140Z,94121.88
2018-02-01T05:29:09.200Z,94131.83
2018-02-01T05:31:38.227Z,94130.17
2018-02-01T05:34:07.261Z,94125.89
2018-02-01T05:36:36.296Z,94139.82
2018-02-01T05:39:05.345Z,94140.53
2018-02-01T05:41:34.373Z,94146.39
2018-02-01T05:44:03.413Z,94148.05
2018-02-01T05:46:32.457Z,94141.55
2018-02-01T05:49:01.473Z,94134.41
2018-02-01T05:54:05.744Z,94145.23
2018-02-01T05:56:34.777Z,94140.99
2018-02-01T05:59:03.822Z,94141.61
2018-02-01T06:01:32.853Z,94144.84
2018-02-01T06:04:01.892Z,94144.37
2018-02-01T06:06:30.917Z,94147.67
2018-02-01T06:08:59.949Z,94148.94
2018-02-01T06:11:29.017Z,94149.81
2018-02-01T06:13:58.051Z,94145.27
2018-02-01T06:16:27.076Z,94151.58
2018-02-01T06:18:56.107Z,94148.01
2018-02-01T06:21:25.157Z,94149.98
2018-02-01T06:26:29.373Z,94141.66
2018-02-01T06:28:58.425Z,94139.86
2018-02-01T06:31:27.534Z,94148.22
2018-02-01T06:33:56.566Z,94143.77
2018-02-01T06:36:25.598Z,94144.62
2018-02-01T06:38:54.643Z,94140.28
2018-02-01T06:41:23.697Z,94136.30
2018-02-01T06:43:52.742Z,94143.47
2018-02-01T06:46:21.777Z,94142.78
2018-02-01T06:48:50.821Z,94140.36
2018-02-01T06:53:55.097Z,94141.30
2018-02-01T06:56:24.135Z,94147.12
2018-02-01T06:58:53.173Z,94151.03
2018-02-01T07:01:34.899Z,94146.23
2018-02-01T07:04:04.874Z,94151.67
2018-02-01T07:06:33.903Z,94145.04
2018-02-01T07:09:02.958Z,94152.00
2018-02-01T07:14:07.233Z,94164.97
2018-02-01T07:16:36.273Z,94157.89
2018-02-01T07:19:05.313Z,94157.17
2018-02-01T07:21:34.337Z,94166.22
2018-02-01T07:24:03.356Z,94167.67
2018-02-01T07:26:33.325Z,94166.17
2018-02-01T07:29:02.384Z,94159.13
2018-02-01T07:31:31.422Z,94158.20
2018-02-01T07:34:00.458Z,94153.64
2018-02-01T07:36:29.511Z,94156.66
2018-02-01T07:38:59.454Z,94148.13
2018-02-01T07:41:28.489Z,94155.59
2018-02-01T07:43:57.547Z,94154.12
2018-02-01T07:46:36.529Z,94156.63
2018-02-01T07:49:05.573Z,94149.12
2018-02-01T07:51:34.604Z,94156.47
2018-02-01T07:54:03.649Z,94158.93
2018-02-01T07:59:07.941Z,94150.38
2018-02-01T08:01:37.009Z,94151.64
2018-02-01T08:06:42.858Z,94151.41
2018-02-01T08:09:12.401Z,94142.18
2018-02-01T08:11:41.478Z,94147.84
2018-02-01T08:14:10.496Z,94147.80
2018-02-01T08:16:39.545Z,94141.34
2018-02-01T08:19:08.577Z,94142.11
2018-02-01T08:21:37.617Z,94147.42
2018-02-01T08:26:41.840Z,94127.64
2018-02-01T08:29:10.865Z,94132.22
2018-02-01T08:31:39.917Z,94142.13
2018-02-01T08:34:09.569Z,94139.20
2018-02-01T08:36:38.596Z,94144.22
2018-02-01T08:41:42.874Z,94152.77
2018-02-01T08:44:11.909Z,94154.03
2018-02-01T08:46:40.943Z,94157.63
2018-02-01T08:49:09.966Z,94156.07
2018-02-01T08:51:39.005Z,94154.36
2018-02-01T08:54:18.869Z,94154.61
2018-02-01T08:56:47.904Z,94148.78
2018-02-01T08:59:16.956Z,94156.06
2018-02-01T09:01:45.992Z,94149.69
2018-02-01T09:04:15.088Z,94161.08
2018-02-01T09:06:44.086Z,94162.37
2018-02-01T09:09:13.136Z,94172.27
2018-02-01T09:11:42.159Z,94167.25
2018-02-01T09:14:11.235Z,94172.08
2018-02-01T09:16:40.257Z,94181.41
2018-02-01T09:21:44.536Z,94178.01
2018-02-01T09:24:13.607Z,94183.19
2018-02-01T09:29:17.868Z,94192.41
2018-02-01T09:31:46.901Z,94207.77
2018-02-01T09:34:15.949Z,94207.81
2018-02-01T09:36:44.989Z,94206.23
2018-02-01T09:39:14.038Z,94214.23
2018-02-01T09:44:18.312Z,94220.69
2018-02-01T09:49:22.543Z,94229.27
2018-02-01T09:51:51.576Z,94235.33
2018-02-01T09:54:20.649Z,94231.89
2018-02-01T09:56:50.639Z,94228.82
2018-02-01T09:59:19.638Z,94232.02
2018-02-01T10:01:48.753Z,94234.61
2018-02-01T10:04:17.790Z,94237.70
2018-02-01T10:06:46.825Z,94246.33
2018-02-01T10:11:51.097Z,94249.42
2018-02-01T10:14:20.123Z,94242.70
2018-02-01T10:16:49.159Z,94243.64
2018-02-01T10:19:18.184Z,94238.47
2018-02-01T10:21:47.229Z,94248.29
2018-02-01T10:24:16.257Z,94249.86
2018-02-01T10:26:45.311Z,94247.02
2018-02-01T10:29:15.053Z,94254.64
2018-02-01T10:31:44.082Z,94258.66
2018-02-01T10:34:13.930Z,94253.52
2018-02-01T10:36:42.984Z,94254.98
2018-02-01T10:39:12.037Z,94258.94
2018-02-01T10:41:41.065Z,94260.88
2018-02-01T10:44:10.091Z,94258.28
2018-02-01T10:46:39.124Z,94258.66
2018-02-01T10:49:08.171Z,94254.95
2018-02-01T10:54:12.446Z,94260.42
2018-02-01T10:56:41.685Z,94255.44
2018-02-01T10:59:10.713Z,94254.09
2018-02-01T11:01:39.718Z,94257.62
2018-02-01T11:04:08.747Z,94259.47
2018-02-01T11:06:37.785Z,94259.44
2018-02-01T11:09:06.818Z,94263.69
2018-02-01T11:11:35.872Z,94262.45
2018-02-01T11:14:04.926Z,94254.48
2018-02-01T11:16:34.058Z,94263.48
2018-02-01T11:19:03.176Z,94259.52
2018-02-01T11:21:32.146Z,94262.45
2018-02-01T11:24:01.199Z,94266.03
2018-02-01T11:26:30.232Z,94267.28
2018-02-01T11:28:59.263Z,94266.51
2018-02-01T11:31:28.291Z,94263.92
2018-02-01T11:33:57.321Z,94264.42
2018-02-01T11:36:27.000Z,94262.34
2018-02-01T11:41:31.265Z,94264.51
2018-02-01T11:44:00.291Z,94263.14
2018-02-01T11:46:29.334Z,94276.81
2018-02-01T11:48:58.365Z,94289.95
2018-02-01T11:51:27.392Z,94287.87
2018-02-01T11:53:56.430Z,94284.76
2018-02-01T11:56:25.474Z,94293.02
2018-02-01T11:58:54.503Z,94294.75
2018-02-01T12:01:23.537Z,94294.34
2018-02-01T12:03:52.573Z,94283.13
2018-02-01T12:06:21.623Z,94287.97
2018-02-01T12:11:25.920Z,94285.01
2018-02-01T12:13:54.981Z,94287.17
2018-02-01T12:16:24.022Z,94282.84
2018-02-01T12:18:53.069Z,94281.44
2018-02-01T12:21:22.163Z,94278.19
2018-02-01T12:23:51.189Z,94283.09
2018-02-01T12:26:20.229Z,94288.12
2018-02-01T12:28:49.280Z,94289.36
2018-02-01T12:31:18.322Z,94285.07
2018-02-01T12:33:48.325Z,94273.39
2018-02-01T12:36:17.332Z,94267.02
2018-02-01T12:38:46.377Z,94271.20
2018-02-01T12:41:15.404Z,94269.28
2018-02-01T12:43:45.193Z,94275.67
2018-02-01T12:46:14.233Z,94274.86
2018-02-01T12:48:44.271Z,94272.44
2018-02-01T12:51:13.297Z,94271.69
2018-02-01T12:53:44.151Z,94278.81
2018-02-01T12:56:13.156Z,94274.43
2018-02-01T12:58:43.572Z,94274.86
2018-02-01T13:01:12.579Z,94277.41
2018-02-01T13:03:41.633Z,94276.48
2018-02-01T13:06:10.680Z,94286.47
2018-02-01T13:08:39.721Z,94287.97
2018-02-01T13:11:43.255Z,94283.17
2018-02-01T13:14:12.324Z,94278.94
2018-02-01T13:16:41.456Z,94275.25
2018-02-01T13:19:10.513Z,94272.41
2018-02-01T13:21:39.556Z,94277.33
2018-02-01T13:24:08.582Z,94271.79
2018-02-01T13:29:12.854Z,94273.42
2018-02-01T13:31:42.429Z,94272.23
2018-02-01T13:34:11.497Z,94275.52
2018-02-01T13:36:40.547Z,94274.73
2018-02-01T13:39:09.579Z,94275.00
2018-02-01T13:41:38.625Z,94273.62
2018-02-01T13:44:07.654Z,94267.13
2018-02-01T13:46:36.699Z,94265.62
2018-02-01T13:49:05.737Z,94273.19
2018-02-01T13:51:34.783Z,94274.54
2018-02-01T13:54:03.836Z,94272.41
2018-02-01T13:56:32.893Z,94280.31
2018-02-01T13:59:01.940Z,94276.77
2018-02-01T14:01:30.996Z,94277.34
2018-02-01T14:04:00.028Z,94281.13
2018-02-01T14:06:29.070Z,94286.55
2018-02-01T14:08:58.105Z,94282.48
2018-02-01T14:11:27.136Z,94272.91
2018-02-01T14:13:56.174Z,94268.66
2018-02-01T14:16:25.258Z,94272.08
2018-02-01T14:18:54.290Z,94279.28
2018-02-01T14:21:23.314Z,94287.84
2018-02-01T14:23:52.397Z,94283.90
2018-02-01T14:26:21.425Z,94285.52
2018-02-01T14:28:50.460Z,94290.66
2018-02-01T14:31:19.489Z,94283.44
2018-02-01T14:33:48.535Z,94291.78
2018-02-01T14:36:17.585Z,94294.08
2018-02-01T14:38:47.437Z,94299.42
2018-02-01T14:41:16.463Z,94292.95
2018-02-01T14:43:45.527Z,94299.19
2018-02-01T14:46:15.571Z,94298.73
2018-02-01T14:48:44.668Z,94297.27
2018-02-01T14:51:14.703Z,94302.38
2018-02-01T14:53:49.168Z,94300.81
2018-02-01T14:56:22.268Z,94300.53
2018-02-01T14:58:56.986Z,94298.65
2018-02-01T15:01:28.401Z,94292.23
2018-02-01T15:04:01.660Z,94296.83
2018-02-01T15:06:35.423Z,94299.14
2018-02-01T15:09:08.523Z,94302.92
2018-02-01T15:11:42.774Z,94298.73
2018-02-01T15:14:15.932Z,94302.28
2018-02-01T15:16:49.321Z,94308.73
2018-02-01T15:19:22.815Z,94303.79
2018-02-01T15:21:56.484Z,94308.09
2018-02-01T15:24:28.930Z,94303.45
2018-02-01T15:27:02.517Z,94305.98
2018-02-01T15:29:35.942Z,94306.03
2018-02-01T15:32:09.429Z,94308.62
2018-02-01T15:34:42.180Z,94308.78
2018-02-01T15:37:15.403Z,94304.15
2018-02-01T15:39:49.125Z,94301.27
2018-02-01T15:42:22.095Z,94300.53
2018-02-01T15:44:55.316Z,94302.82
2018-02-01T15:47:29.502Z,94305.66
2018-02-01T15:50:02.436Z,94309.84
2018-02-01T15:52:35.636Z,94320.79
2018-02-01T15:55:09.015Z,94320.50
2018-02-01T15:57:42.263Z,94317.34
2018-02-01T16:02:50.787Z,94323.63
2018-02-01T16:10:39.726Z,94314.19
2018-02-01T16:13:11.726Z,94313.98
2018-02-01T16:15:44.690Z,94325.26
2018-02-01T16:18:18.606Z,94330.77
2018-02-01T16:20:51.107Z,94330.78
2018-02-01T16:23:24.331Z,94338.25
2018-02-01T16:25:57.264Z,94342.79
2018-02-01T16:28:30.510Z,94336.83
2018-02-01T16:31:04.086Z,94338.39
2018-02-01T16:36:12.566Z,94339.47
2018-02-01T16:38:46.534Z,94336.27
2018-02-01T16:41:19.676Z,94331.48
2018-02-01T16:43:53.295Z,94335.02
2018-02-01T16:46:25.921Z,94336.23
2018-02-01T16:48:59.671Z,94338.22
2018-02-01T16:54:08.847Z,94356.72
2018-02-01T16:56:40.315Z,94371.88
2018-02-01T16:59:13.570Z,94364.66
2018-02-01T17:01:46.468Z,94365.98
2018-02-01T17:04:19.445Z,94367.05
2018-02-01T17:06:48.441Z,94381.56
2018-02-01T17:09:17.490Z,94388.19
2018-02-01T17:11:46.528Z,94384.83
2018-02-01T17:14:15.998Z,94388.56
2018-02-01T17:16:45.087Z,94378.23
2018-02-01T17:19:14.075Z,94388.57
2018-02-01T17:21:43.184Z,94380.02
2018-02-01T17:24:13.332Z,94378.00
2018-02-01T17:26:42.372Z,94374.84
2018-02-01T17:29:11.387Z,94381.63
2018-02-01T17:31:40.421Z,94377.75
2018-02-01T17:34:09.461Z,94383.96
2018-02-01T17:36:38.499Z,94387.80
2018-02-01T17:39:07.533Z,94399.98
2018-02-01T17:41:36.560Z,94401.95
2018-02-01T17:44:05.593Z,94399.81
2018-02-01T17:46:34.627Z,94399.71
2018-02-01T17:49:03.670Z,94402.97
2018-02-01T17:51:32.703Z,94395.45
2018-02-01T17:54:01.737Z,94398.13
2018-02-01T17:56:30.789Z,94405.42
2018-02-01T17:58:59.860Z,94399.66
2018-02-01T18:01:28.862Z,94399.40
2018-02-01T18:03:57.893Z,94404.45
2018-02-01T18:06:26.944Z,94409.25
2018-02-01T18:08:55.985Z,94415.13
2018-02-01T18:11:25.009Z,94427.20
2018-02-01T18:13:54.044Z,94429.63
2018-02-01T18:16:23.076Z,94430.98
2018-02-01T18:18:52.115Z,94435.05
2018-02-01T18:21:25.342Z,94428.55
2018-02-01T18:23:54.370Z,94414.33
2018-02-01T18:26:23.425Z,94420.16
2018-02-01T18:28:52.475Z,94424.08
2018-02-01T18:31:21.513Z,94427.39
2018-02-01T18:33:50.550Z,94417.70
2018-02-01T18:36:19.630Z,94426.61
2018-02-01T18:38:48.648Z,94432.84
2018-02-01T18:41:17.695Z,94434.91
2018-02-01T18:43:46.733Z,94436.80
2018-02-01T18:46:16.450Z,94440.45
2018-02-01T18:48:45.459Z,94441.46
2018-02-01T18:51:15.373Z,94444.84
2018-02-01T18:53:44.388Z,94447.47
2018-02-01T18:56:14.438Z,94448.65
2018-02-01T18:58:43.513Z,94446.04
2018-02-01T19:01:13.987Z,94447.10
2018-02-01T19:03:43.129Z,94446.22
2018-02-01T19:06:12.658Z,94443.98
2018-02-01T19:08:41.801Z,94452.27
2018-02-01T19:11:10.845Z,94447.84
2018-02-01T19:13:39.895Z,94451.64
2018-02-01T19:18:44.233Z,94463.22
2018-02-01T19:21:14.221Z,94465.31
2018-02-01T19:23:43.284Z,94470.67
2018-02-01T19:26:13.726Z,94468.69
2018-02-01T19:28:42.737Z,94467.30
2018-02-01T19:31:11.971Z,94464.22
2018-02-01T19:33:40.984Z,94466.38
2018-02-01T19:36:10.051Z,94465.61
2018-02-01T19:38:39.083Z,94459.75
2018-02-01T19:41:08.166Z,94460.11
2018-02-01T19:43:38.118Z,94453.20
2018-02-01T19:46:09.494Z,94439.38
2018-02-01T19:48:38.535Z,94438.19
2018-02-01T19:51:07.572Z,94452.30
2018-02-01T19:53:36.628Z,94446.85
2018-02-01T19:56:05.694Z,94452.02
2018-02-01T19:58:34.710Z,94454.98
2018-02-01T20:01:03.761Z,94451.39
2018-02-01T20:03:32.805Z,94445.58
2018-02-01T20:06:01.850Z,94450.05
2018-02-01T20:08:31.808Z,94449.17
2018-02-01T20:11:00.841Z,94454.98
2018-02-01T20:13:29.889Z,94455.75
2018-02-01T20:15:58.921Z,94455.52
2018-02-01T20:18:28.609Z,94452.84
2018-02-01T20:20:57.686Z,94455.48
2018-02-01T20:23:26.726Z,94453.11
2018-02-01T20:25:56.748Z,94449.86
2018-02-01T20:28:32.830Z,94449.67
2018-02-01T20:31:02.200Z,94446.95
2018-02-01T20:33:31.270Z,94452.52
2018-02-01T20:36:00.366Z,94447.08
2018-02-01T20:38:29.541Z,94439.58
2018-02-01T20:40:58.625Z,94441.72
2018-02-01T20:43:27.701Z,94440.11
2018-02-01T20:45:56.770Z,94433.64
2018-02-01T20:48:26.738Z,94433.14
2018-02-01T20:50:55.875Z,94430.23
2018-02-01T20:53:24.928Z,94425.13
2018-02-01T20:55:53.968Z,94425.82
2018-02-01T20:58:23.368Z,94427.52
2018-02-01T21:00:52.623Z,94429.81
2018-02-01T21:03:21.920Z,94427.05
2018-02-01T21:05:51.967Z,94424.39
2018-02-01T21:08:21.078Z,94421.16
2018-02-01T21:10:56.771Z,94416.26
2018-02-01T21:13:25.803Z,94424.72
2018-02-01T21:15:54.955Z,94414.00
2018-02-01T21:18:23.989Z,94408.16
2018-02-01T21:20:53.059Z,94409.09
2018-02-01T21:23:22.068Z,94421.30
2018-02-01T21:25:51.107Z,94416.23
2018-02-01T21:28:20.267Z,94418.44
2018-02-01T21:30:49.390Z,94419.28
2018-02-01T21:33:18.619Z,94425.86
2018-02-01T21:35:47.676Z,94433.99
2018-02-01T21:38:17.212Z,94441.48
2018-02-01T21:40:46.277Z,94437.06
2018-02-01T21:43:15.316Z,94434.22
2018-02-01T21:45:44.356Z,94439.85
2018-02-01T21:48:13.380Z,94435.09
2018-02-01T21:50:42.422Z,94440.11
2018-02-01T21:53:15.133Z,94430.47
2018-02-01T21:55:44.177Z,94431.72
2018-02-01T21:58:13.683Z,94430.65
2018-02-01T22:00:43.466Z,94430.28
2018-02-01T22:03:12.501Z,94431.37
2018-02-01T22:05:41.525Z,94438.16
2018-02-01T22:08:10.586Z,94432.17
2018-02-01T22:10:39.614Z,94443.64
2018-02-01T22:13:09.320Z,94445.67
2018-02-01T22:15:38.364Z,94441.45
2018-02-01T22:18:07.403Z,94455.02
2018-02-01T22:20:36.487Z,94461.04
2018-02-01T22:23:05.481Z,94454.70
2018-02-01T22:25:34.509Z,94455.34
2018-02-01T22:28:03.551Z,94463.42
2018-02-01T22:30:32.613Z,94463.58
2018-02-01T22:33:01.645Z,94467.69
2018-02-01T22:35:38.861Z,94472.88
2018-02-01T22:38:07.853Z,94469.60
2018-02-01T22:40:36.894Z,94466.63
2018-02-01T22:43:05.988Z,94456.33
2018-02-01T22:45:35.013Z,94458.81
2018-02-01T22:48:42.557Z,94455.16
2018-02-01T22:51:11.597Z,94458.72
2018-02-01T22:53:40.649Z,94463.12
2018-02-01T22:56:14.715Z,94465.42
2018-02-01T22:58:43.752Z,94454.83
2018-02-01T23:01:12.788Z,94459.39
2018-02-01T23:06:17.018Z,94448.34
2018-02-01T23:08:46.049Z,94442.10
2018-02-01T23:11:15.100Z,94445.37
2018-02-01T23:13:44.113Z,94438.72
2018-02-01T23:18:48.367Z,94434.44
2018-02-01T23:21:17.431Z,94436.81
2018-02-01T23:23:46.445Z,94436.09
2018-02-01T23:26:15.489Z,94434.42
2018-02-01T23:28:44.522Z,94435.53
2018-02-01T23:31:13.557Z,94434.53
2018-02-01T23:33:42.608Z,94430.81
2018-02-01T23:36:11.638Z,94429.75
2018-02-01T23:38:40.673Z,94432.95
2018-02-01T23:41:09.808Z,94428.09
2018-02-01T23:43:38.817Z,94429.14
2018-02-01T23:46:07.860Z,94433.85
2018-02-01T23:48:36.907Z,94433.02
2018-02-01T23:51:05.945Z,94430.00
2018-02-01T23:53:34.973Z,94434.29
2018-02-01T23:56:04.009Z,94438.00
2018-02-01T23:58:38.447Z,94436.33
